createdAt,value
2023-04-18T00:01:57.183Z,9.05
2023-04-18T00:04:24.134Z,8.86
2023-04-18T00:06:51.541Z,8.84
2023-04-18T00:09:18.321Z,8.91
2023-04-18T00:11:45.497Z,8.83
2023-04-18T00:14:12.311Z,8.75
2023-04-18T00:16:39.392Z,8.71
2023-04-18T00:19:06.331Z,8.81
2023-04-18T00:21:33.218Z,8.84
2023-04-18T00:23:59.930Z,8.81
2023-04-18T00:26:27.862Z,8.93
2023-04-18T00:28:54.512Z,8.90
2023-04-18T00:31:21.220Z,8.89
2023-04-18T00:33:47.946Z,8.89
2023-04-18T00:36:14.640Z,8.90
2023-04-18T00:38:41.254Z,8.89
2023-04-18T00:41:07.873Z,8.79
2023-04-18T00:43:35.301Z,8.69
2023-04-18T00:46:02.105Z,8.83
2023-04-18T00:48:30.160Z,8.80
2023-04-18T00:50:57.479Z,8.91
2023-04-18T00:53:24.296Z,8.94
2023-04-18T00:55:51.416Z,8.96
2023-04-18T00:58:18.170Z,8.87
2023-04-18T01:00:44.826Z,8.93
2023-04-18T01:03:14.617Z,8.80
2023-04-18T01:05:41.535Z,8.88
2023-04-18T01:08:08.424Z,8.80
2023-04-18T01:10:36.114Z,8.89
2023-04-18T01:13:16.808Z,8.71
2023-04-18T01:18:19.297Z,8.69
2023-04-18T01:20:48.354Z,8.58
2023-04-18T01:23:16.173Z,8.63
2023-04-18T01:25:43.790Z,8.67
2023-04-18T01:28:12.235Z,8.66
2023-04-18T01:30:38.934Z,8.66
2023-04-18T01:33:05.850Z,8.62
2023-04-18T01:35:33.636Z,8.59
2023-04-18T01:38:00.756Z,8.61
2023-04-18T01:40:27.561Z,8.65
2023-04-18T01:42:54.268Z,8.45
2023-04-18T01:45:21.077Z,8.48
2023-04-18T01:47:47.914Z,8.58
2023-04-18T01:50:14.677Z,8.53
2023-04-18T01:52:41.631Z,8.55
2023-04-18T01:55:08.678Z,8.34
2023-04-18T02:00:11.320Z,8.29
2023-04-18T02:02:38.127Z,8.24
2023-04-18T02:05:05.123Z,8.23
2023-04-18T02:07:31.743Z,8.19
2023-04-18T02:09:58.342Z,8.23
2023-04-18T02:12:24.993Z,8.14
2023-04-18T02:14:53.702Z,8.16
2023-04-18T02:17:23.563Z,8.08
2023-04-18T02:19:51.571Z,7.99
2023-04-18T02:22:18.877Z,8.02
2023-04-18T02:24:45.695Z,8.07
2023-04-18T02:30:39.958Z,8.06
2023-04-18T02:33:06.740Z,7.95
2023-04-18T02:35:35.429Z,7.90
2023-04-18T02:38:02.189Z,7.89
2023-04-18T02:40:28.911Z,7.83
2023-04-18T02:42:55.538Z,7.78
2023-04-18T02:45:22.173Z,7.85
2023-04-18T02:47:55.612Z,7.84
2023-04-18T02:50:24.044Z,7.87
2023-04-18T02:52:50.719Z,7.90
2023-04-18T02:55:17.569Z,7.87
2023-04-18T02:57:44.192Z,7.80
2023-04-18T03:00:11.659Z,7.87
2023-04-18T03:02:38.342Z,7.88
2023-04-18T03:05:06.319Z,7.84
2023-04-18T03:07:33.045Z,7.94
2023-04-18T03:10:00.179Z,7.86
2023-04-18T03:12:26.805Z,7.80
2023-04-18T03:14:53.453Z,7.80
2023-04-18T03:17:20.127Z,7.81
2023-04-18T03:19:46.829Z,7.74
2023-04-18T03:22:14.332Z,7.77
2023-04-18T03:24:41.114Z,7.77
2023-04-18T03:27:07.956Z,7.76
2023-04-18T03:29:34.783Z,7.74
2023-04-18T03:32:01.498Z,7.78
2023-04-18T03:34:28.603Z,7.73
2023-04-18T03:36:55.329Z,7.71
2023-04-18T03:39:22.012Z,7.83
2023-04-18T03:41:49.586Z,7.72
2023-04-18T03:44:16.860Z,7.72
2023-04-18T03:46:44.086Z,7.74
2023-04-18T03:49:10.861Z,7.79
2023-04-18T03:51:49.702Z,7.87
2023-04-18T03:54:16.932Z,7.70
2023-04-18T03:56:43.991Z,7.69
2023-04-18T03:59:11.097Z,7.88
2023-04-18T04:01:38.453Z,7.84
2023-04-18T04:04:06.115Z,7.77
2023-04-18T04:06:33.135Z,7.88
2023-04-18T04:08:59.819Z,7.87
2023-04-18T04:11:27.040Z,8.03
2023-04-18T04:13:53.721Z,8.08
2023-04-18T04:16:20.468Z,8.03
2023-04-18T04:18:47.282Z,8.01
2023-04-18T04:21:13.964Z,7.97
2023-04-18T04:23:42.644Z,7.97
2023-04-18T04:26:09.773Z,8.10
2023-04-18T04:28:36.446Z,8.14
2023-04-18T04:31:07.093Z,8.16
2023-04-18T04:33:35.999Z,8.01
2023-04-18T04:36:02.692Z,8.10
2023-04-18T04:38:31.275Z,8.15
2023-04-18T04:40:58.640Z,8.16
2023-04-18T04:43:26.247Z,8.19
2023-04-18T04:45:53.357Z,8.19
2023-04-18T04:48:22.325Z,8.16
2023-04-18T04:50:53.232Z,8.21
2023-04-18T04:53:19.999Z,8.25
2023-04-18T04:58:20.283Z,8.28
2023-04-18T05:00:47.373Z,8.22
2023-04-18T05:03:14.266Z,8.24
2023-04-18T05:05:41.057Z,8.34
2023-04-18T05:08:07.811Z,8.35
2023-04-18T05:10:37.297Z,8.24
2023-04-18T05:13:04.483Z,8.28
2023-04-18T05:15:31.967Z,8.32
2023-04-18T05:17:58.869Z,8.43
2023-04-18T05:20:25.774Z,8.39
2023-04-18T05:22:52.521Z,8.44
2023-04-18T05:25:19.816Z,8.48
2023-04-18T05:27:47.282Z,8.58
2023-04-18T05:30:14.199Z,8.62
2023-04-18T05:32:41.073Z,8.61
2023-04-18T05:35:08.686Z,8.54
2023-04-18T05:37:35.498Z,8.50
2023-04-18T05:40:02.129Z,8.51
2023-04-18T05:42:28.806Z,8.43
2023-04-18T05:44:55.582Z,8.43
2023-04-18T05:47:24.304Z,8.36
2023-04-18T05:49:51.258Z,8.35
2023-04-18T05:52:17.889Z,8.46
2023-04-18T05:54:44.605Z,8.40
2023-04-18T05:57:11.323Z,8.45
2023-04-18T05:59:37.999Z,8.56
2023-04-18T06:02:04.785Z,8.54
2023-04-18T06:07:10.029Z,8.55
2023-04-18T06:09:36.705Z,8.57
2023-04-18T06:12:03.643Z,8.59
2023-04-18T06:14:30.379Z,8.64
2023-04-18T06:16:57.170Z,8.68
2023-04-18T06:19:23.858Z,8.67
2023-04-18T06:21:50.963Z,8.71
2023-04-18T06:24:17.793Z,8.68
2023-04-18T06:26:44.509Z,8.72
2023-04-18T06:29:12.650Z,8.68
2023-04-18T06:31:39.441Z,8.71
2023-04-18T06:34:06.712Z,8.88
2023-04-18T06:36:33.637Z,8.95
2023-04-18T06:39:00.360Z,8.92
2023-04-18T06:41:26.999Z,9.03
2023-04-18T06:44:03.599Z,9.06
2023-04-18T06:46:32.191Z,9.02
2023-04-18T06:48:59.281Z,9.19
2023-04-18T06:51:25.962Z,9.16
2023-04-18T06:53:55.124Z,9.11
2023-04-18T06:56:21.831Z,9.11
2023-04-18T06:58:49.576Z,9.15
2023-04-18T07:01:16.292Z,9.10
2023-04-18T07:03:43.013Z,9.12
2023-04-18T07:06:10.866Z,8.98
2023-04-18T07:08:38.096Z,8.98
2023-04-18T07:13:43.805Z,9.22
2023-04-18T07:16:10.509Z,9.05
2023-04-18T07:18:38.320Z,9.09
2023-04-18T07:21:07.968Z,9.40
2023-04-18T07:23:35.439Z,9.44
2023-04-18T07:26:03.259Z,9.32
2023-04-18T07:28:31.881Z,9.38
2023-04-18T07:30:58.989Z,9.46
2023-04-18T07:33:25.880Z,9.19
2023-04-18T07:35:53.332Z,9.07
2023-04-18T07:38:20.241Z,9.23
2023-04-18T07:40:46.889Z,9.22
2023-04-18T07:43:13.520Z,9.24
2023-04-18T07:45:43.419Z,9.29
2023-04-18T07:48:10.171Z,9.39
2023-04-18T07:50:36.858Z,9.64
2023-04-18T07:53:03.771Z,9.65
2023-04-18T07:55:30.896Z,9.81
2023-04-18T07:57:57.526Z,9.91
2023-04-18T08:00:24.691Z,10.06
2023-04-18T08:02:51.549Z,10.16
2023-04-18T08:05:21.315Z,10.25
2023-04-18T08:07:48.098Z,10.34
2023-04-18T08:10:14.904Z,10.03
2023-04-18T08:12:41.663Z,10.36
2023-04-18T08:15:09.010Z,10.58
2023-04-18T08:17:36.175Z,10.79
2023-04-18T08:20:07.452Z,10.78
2023-04-18T08:22:34.302Z,10.65
2023-04-18T08:27:33.535Z,10.76
2023-04-18T08:32:32.429Z,10.87
2023-04-18T08:34:59.233Z,10.89
2023-04-18T08:37:27.976Z,10.69
2023-04-18T08:39:54.719Z,10.90
2023-04-18T08:44:54.286Z,11.22
2023-04-18T08:47:21.011Z,11.03
2023-04-18T08:49:47.966Z,11.07
2023-04-18T08:52:15.413Z,11.14
2023-04-18T08:54:43.136Z,10.87
2023-04-18T08:57:12.765Z,11.12
2023-04-18T08:59:40.281Z,11.11
2023-04-18T09:02:09.164Z,11.01
2023-04-18T09:04:45.309Z,11.11
2023-04-18T09:07:14.106Z,11.15
2023-04-18T09:09:46.704Z,11.10
2023-04-18T09:12:18.392Z,11.12
2023-04-18T09:14:47.246Z,10.89
2023-04-18T09:17:18.429Z,10.78
2023-04-18T09:19:49.056Z,10.82
2023-04-18T09:22:16.612Z,11.04
2023-04-18T09:24:53.487Z,11.12
2023-04-18T09:27:22.586Z,11.23
2023-04-18T09:29:52.225Z,11.26
2023-04-18T09:32:25.345Z,11.35
2023-04-18T09:34:54.691Z,11.34
2023-04-18T09:37:22.012Z,11.49
2023-04-18T09:39:50.128Z,11.63
2023-04-18T09:42:17.609Z,11.62
2023-04-18T09:45:07.373Z,11.48
2023-04-18T09:47:36.619Z,11.40
2023-04-18T09:50:08.444Z,11.60
2023-04-18T09:52:37.444Z,11.67
2023-04-18T09:55:06.962Z,11.48
2023-04-18T10:00:20.314Z,11.73
2023-04-18T10:05:36.130Z,11.81
2023-04-18T10:08:03.892Z,11.94
2023-04-18T10:10:30.619Z,12.00
2023-04-18T10:12:59.799Z,12.11
2023-04-18T10:15:28.741Z,12.09
2023-04-18T10:18:04.504Z,12.08
2023-04-18T10:20:35.184Z,12.25
2023-04-18T10:23:31.094Z,12.30
2023-04-18T10:25:58.921Z,12.44
2023-04-18T10:28:27.670Z,12.59
2023-04-18T10:30:56.649Z,12.67
2023-04-18T10:36:09.567Z,12.70
2023-04-18T10:38:45.436Z,12.73
2023-04-18T10:41:16.240Z,12.77
2023-04-18T10:44:08.382Z,12.83
2023-04-18T10:46:51.297Z,12.91
2023-04-18T10:49:27.284Z,13.02
2023-04-18T10:51:58.599Z,13.00
2023-04-18T10:54:55.990Z,12.89
2023-04-18T10:57:23.693Z,13.03
2023-04-18T11:02:26.428Z,13.05
2023-04-18T11:04:55.269Z,12.82
2023-04-18T11:07:37.925Z,13.10
2023-04-18T11:10:06.872Z,13.14
2023-04-18T11:12:36.386Z,13.05
2023-04-18T11:15:10.997Z,12.94
2023-04-18T11:17:40.413Z,12.69
2023-04-18T11:20:16.027Z,12.61
2023-04-18T11:22:49.305Z,12.40
2023-04-18T11:25:17.707Z,12.46
2023-04-18T11:27:46.878Z,12.50
2023-04-18T11:30:15.667Z,12.54
2023-04-18T11:32:42.518Z,12.56
2023-04-18T11:35:11.193Z,12.72
2023-04-18T11:37:39.843Z,12.77
2023-04-18T11:40:09.554Z,12.82
2023-04-18T11:42:39.344Z,12.88
2023-04-18T11:45:13.244Z,13.04
2023-04-18T11:47:42.174Z,13.12
2023-04-18T11:50:12.354Z,12.97
2023-04-18T11:52:41.649Z,13.24
2023-04-18T11:55:14.009Z,13.08
2023-04-18T11:57:41.137Z,13.21
2023-04-18T12:00:09.391Z,13.29
2023-04-18T12:02:44.244Z,13.51
2023-04-18T12:05:15.007Z,13.53
2023-04-18T12:07:45.062Z,13.40
2023-04-18T12:12:54.316Z,13.64
2023-04-18T12:15:24.196Z,13.69
2023-04-18T12:17:53.674Z,13.54
2023-04-18T12:20:20.538Z,13.70
2023-04-18T12:22:49.743Z,13.69
2023-04-18T12:25:24.318Z,13.74
2023-04-18T12:28:00.363Z,13.82
2023-04-18T12:30:37.388Z,13.50
2023-04-18T12:33:05.081Z,13.64
2023-04-18T12:35:32.687Z,13.65
2023-04-18T12:43:07.301Z,13.81
2023-04-18T12:48:06.929Z,13.69
2023-04-18T12:50:34.028Z,13.62
2023-04-18T12:53:01.873Z,13.63
2023-04-18T12:55:29.388Z,13.70
2023-04-18T12:57:56.413Z,13.87
2023-04-18T13:00:28.288Z,13.91
2023-04-18T13:02:55.257Z,14.36
2023-04-18T13:05:24.829Z,14.47
2023-04-18T13:07:56.362Z,14.18
2023-04-18T13:10:28.792Z,14.39
2023-04-18T13:12:55.946Z,14.38
2023-04-18T13:15:24.082Z,14.40
2023-04-18T13:17:50.901Z,14.60
2023-04-18T13:20:17.643Z,14.21
2023-04-18T13:22:45.463Z,13.96
2023-04-18T13:25:12.170Z,13.96
2023-04-18T13:27:41.715Z,14.07
2023-04-18T13:30:11.846Z,14.14
2023-04-18T13:32:40.529Z,14.07
2023-04-18T13:35:09.056Z,14.07
2023-04-18T13:37:36.355Z,14.28
2023-04-18T13:40:05.709Z,14.26
2023-04-18T13:42:33.974Z,14.19
2023-04-18T13:45:00.690Z,14.13
2023-04-18T13:47:27.511Z,14.17
2023-04-18T13:49:54.607Z,14.04
2023-04-18T13:52:21.267Z,13.89
2023-04-18T13:54:48.614Z,14.04
2023-04-18T13:59:47.986Z,13.94
2023-04-18T14:02:15.063Z,14.08
2023-04-18T14:04:42.200Z,14.12
2023-04-18T14:07:09.386Z,14.11
2023-04-18T14:09:36.332Z,14.12
2023-04-18T14:12:03.072Z,14.20
2023-04-18T14:14:29.953Z,14.30
2023-04-18T14:16:56.800Z,14.11
2023-04-18T14:19:23.645Z,13.96
2023-04-18T14:21:50.307Z,14.10
2023-04-18T14:24:17.015Z,14.10
2023-04-18T14:26:44.185Z,13.99
2023-04-18T14:29:11.399Z,14.06
2023-04-18T14:31:38.469Z,14.07
2023-04-18T14:34:05.835Z,14.03
2023-04-18T14:36:32.890Z,14.20
2023-04-18T14:38:59.590Z,14.23
2023-04-18T14:41:26.464Z,14.36
2023-04-18T14:43:53.325Z,14.23
2023-04-18T14:46:21.351Z,14.15
2023-04-18T14:48:48.230Z,14.34
2023-04-18T14:51:16.866Z,14.44
2023-04-18T14:53:44.144Z,14.49
2023-04-18T14:56:10.947Z,14.59
2023-04-18T14:58:37.596Z,14.52
2023-04-18T15:01:04.698Z,14.57
2023-04-18T15:03:31.518Z,14.54
2023-04-18T15:05:58.409Z,14.63
2023-04-18T15:10:59.147Z,14.60
2023-04-18T15:13:25.835Z,14.71
2023-04-18T15:15:53.509Z,14.39
2023-04-18T15:18:20.651Z,14.45
2023-04-18T15:20:47.692Z,14.31
2023-04-18T15:23:15.096Z,14.20
2023-04-18T15:25:42.966Z,14.20
2023-04-18T15:28:09.732Z,14.11
2023-04-18T15:30:36.634Z,14.07
2023-04-18T15:33:03.512Z,14.02
2023-04-18T15:35:30.247Z,14.01
2023-04-18T15:37:57.717Z,13.77
2023-04-18T15:40:24.502Z,13.84
2023-04-18T15:45:27.126Z,13.65
2023-04-18T15:47:53.949Z,13.78
2023-04-18T15:50:20.870Z,13.72
2023-04-18T15:52:47.587Z,13.68
2023-04-18T15:55:14.398Z,13.70
2023-04-18T15:57:41.955Z,13.65
2023-04-18T16:00:17.595Z,13.65
2023-04-18T16:02:45.424Z,13.51
2023-04-18T16:05:13.190Z,13.53
2023-04-18T16:07:41.527Z,13.56
2023-04-18T16:10:10.850Z,13.51
2023-04-18T16:12:39.217Z,13.58
2023-04-18T16:15:07.276Z,13.49
2023-04-18T16:17:34.516Z,13.50
2023-04-18T16:20:01.558Z,13.51
2023-04-18T16:22:28.215Z,13.48
2023-04-18T16:24:55.016Z,13.43
2023-04-18T16:27:21.971Z,13.35
2023-04-18T16:29:48.593Z,13.36
2023-04-18T16:32:15.313Z,13.39
2023-04-18T16:34:41.923Z,13.30
2023-04-18T16:37:08.582Z,13.28
2023-04-18T16:39:35.317Z,13.24
2023-04-18T16:42:03.094Z,13.21
2023-04-18T16:47:01.886Z,13.16
2023-04-18T16:49:28.654Z,13.12
2023-04-18T16:51:55.351Z,13.14
2023-04-18T16:54:22.024Z,13.14
2023-04-18T16:56:48.896Z,13.15
2023-04-18T17:01:48.880Z,13.28
2023-04-18T17:04:15.964Z,13.33
2023-04-18T17:06:44.023Z,13.22
2023-04-18T17:09:13.847Z,13.25
2023-04-18T17:11:41.936Z,13.24
2023-04-18T17:14:09.108Z,13.31
2023-04-18T17:16:39.493Z,13.28
2023-04-18T17:19:06.525Z,13.31
2023-04-18T17:21:36.865Z,13.28
2023-04-18T17:24:06.012Z,13.25
2023-04-18T17:26:33.922Z,13.18
2023-04-18T17:29:01.497Z,13.26
2023-04-18T17:31:28.285Z,13.14
2023-04-18T17:33:54.979Z,13.14
2023-04-18T17:36:21.858Z,13.19
2023-04-18T17:38:51.545Z,13.16
2023-04-18T17:41:20.447Z,13.17
2023-04-18T17:43:48.782Z,13.15
2023-04-18T17:46:15.668Z,13.09
2023-04-18T17:48:46.719Z,12.96
2023-04-18T17:51:13.395Z,12.95
2023-04-18T17:53:40.119Z,12.98
2023-04-18T17:56:06.750Z,12.91
2023-04-18T17:58:33.474Z,13.00
2023-04-18T18:01:00.266Z,12.84
2023-04-18T18:03:27.357Z,12.79
2023-04-18T18:05:55.222Z,12.87
2023-04-18T18:08:22.591Z,12.76
2023-04-18T18:10:50.088Z,12.70
2023-04-18T18:13:16.897Z,12.61
2023-04-18T18:15:43.647Z,12.63
2023-04-18T18:18:10.398Z,12.51
2023-04-18T18:20:37.139Z,12.57
2023-04-18T18:23:03.850Z,12.56
2023-04-18T18:25:30.746Z,12.55
2023-04-18T18:27:57.430Z,12.51
2023-04-18T18:30:24.265Z,12.51
2023-04-18T18:32:51.461Z,12.47
2023-04-18T18:35:18.401Z,12.27
2023-04-18T18:37:45.218Z,12.38
2023-04-18T18:40:12.389Z,12.43
2023-04-18T18:45:18.066Z,12.31
2023-04-18T18:47:44.779Z,12.36
2023-04-18T18:50:11.480Z,12.26
2023-04-18T18:52:40.967Z,12.17
2023-04-18T18:55:08.209Z,12.21
2023-04-18T18:57:34.825Z,12.20
2023-04-18T19:00:01.495Z,12.15
2023-04-18T19:02:28.553Z,12.14
2023-04-18T19:04:55.548Z,12.10
2023-04-18T19:07:22.362Z,12.11
2023-04-18T19:09:49.657Z,12.08
2023-04-18T19:12:16.451Z,12.05
2023-04-18T19:17:18.756Z,11.98
2023-04-18T19:19:45.366Z,12.01
2023-04-18T19:22:12.030Z,11.90
2023-04-18T19:24:38.661Z,11.74
2023-04-18T19:27:05.361Z,11.85
2023-04-18T19:29:32.937Z,11.79
2023-04-18T19:31:59.821Z,11.85
2023-04-18T19:34:26.558Z,11.92
2023-04-18T19:36:53.178Z,11.86
2023-04-18T19:39:19.833Z,11.83
2023-04-18T19:41:47.195Z,11.83
2023-04-18T19:44:13.875Z,11.81
2023-04-18T19:46:40.536Z,11.83
2023-04-18T19:49:07.321Z,11.82
2023-04-18T19:51:33.980Z,11.79
2023-04-18T19:54:00.716Z,11.73
2023-04-18T19:58:58.961Z,11.65
2023-04-18T20:01:26.035Z,11.55
2023-04-18T20:03:54.221Z,11.64
2023-04-18T20:06:21.139Z,11.67
2023-04-18T20:08:47.848Z,11.67
2023-04-18T20:11:14.575Z,11.68
2023-04-18T20:13:41.761Z,11.58
2023-04-18T20:16:09.569Z,11.52
2023-04-18T20:18:41.123Z,11.59
2023-04-18T20:23:47.335Z,11.57
2023-04-18T20:26:14.069Z,11.51
2023-04-18T20:28:40.770Z,11.31
2023-04-18T20:31:07.481Z,11.42
2023-04-18T20:33:34.520Z,11.45
2023-04-18T20:36:01.179Z,11.34
2023-04-18T20:38:29.921Z,11.41
2023-04-18T20:40:59.032Z,11.48
2023-04-18T20:43:26.010Z,11.26
2023-04-18T20:45:53.937Z,11.33
2023-04-18T20:48:21.393Z,11.43
2023-04-18T20:50:51.685Z,11.55
2023-04-18T20:53:25.271Z,11.49
2023-04-18T20:55:51.951Z,11.50
2023-04-18T20:58:18.619Z,11.38
2023-04-18T21:00:45.249Z,11.49
2023-04-18T21:03:15.758Z,11.50
2023-04-18T21:05:43.772Z,11.29
2023-04-18T21:08:11.374Z,11.36
2023-04-18T21:10:38.148Z,11.28
2023-04-18T21:13:04.814Z,11.02
2023-04-18T21:18:02.781Z,11.27
2023-04-18T21:23:03.366Z,11.35
2023-04-18T21:25:30.028Z,11.36
2023-04-18T21:27:56.667Z,11.15
2023-04-18T21:30:23.513Z,11.33
2023-04-18T21:32:51.720Z,11.35
2023-04-18T21:35:19.820Z,11.36
2023-04-18T21:37:47.487Z,11.15
2023-04-18T21:40:14.731Z,11.15
2023-04-18T21:42:41.487Z,11.20
2023-04-18T21:45:09.664Z,11.12
2023-04-18T21:47:36.404Z,11.17
2023-04-18T21:50:03.836Z,11.17
2023-04-18T21:52:30.675Z,11.17
2023-04-18T21:54:57.351Z,11.16
2023-04-18T21:57:24.068Z,11.10
2023-04-18T21:59:50.719Z,11.21
2023-04-18T22:02:17.598Z,11.11
2023-04-18T22:04:44.395Z,11.12
2023-04-18T22:07:12.616Z,10.99
2023-04-18T22:09:39.375Z,11.02
2023-04-18T22:12:06.135Z,10.88
2023-04-18T22:14:32.783Z,10.79
2023-04-18T22:19:36.932Z,10.95
2023-04-18T22:22:03.589Z,11.01
2023-04-18T22:24:30.197Z,11.01
2023-04-18T22:26:56.832Z,10.95
2023-04-18T22:29:23.432Z,11.00
2023-04-18T22:31:50.067Z,10.89
2023-04-18T22:34:16.973Z,10.83
2023-04-18T22:36:45.746Z,10.77
2023-04-18T22:39:12.512Z,10.82
2023-04-18T22:41:39.193Z,10.70
2023-04-18T22:44:05.896Z,10.84
2023-04-18T22:46:33.151Z,10.89
2023-04-18T22:48:59.916Z,10.84
2023-04-18T22:51:28.857Z,10.83
2023-04-18T22:53:56.424Z,10.91
2023-04-18T22:56:23.551Z,10.83
2023-04-18T22:58:50.253Z,10.82
2023-04-18T23:01:16.991Z,10.84
2023-04-18T23:03:43.745Z,10.85
2023-04-18T23:06:10.613Z,10.86
2023-04-18T23:08:37.375Z,10.86
2023-04-18T23:13:37.787Z,10.79
2023-04-18T23:16:04.719Z,10.79
2023-04-18T23:18:31.410Z,10.79
2023-04-18T23:21:00.175Z,10.89
2023-04-18T23:23:27.030Z,10.86
2023-04-18T23:25:53.654Z,10.82
2023-04-18T23:28:20.484Z,10.82
2023-04-18T23:30:48.303Z,10.79
2023-04-18T23:33:14.941Z,10.74
2023-04-18T23:35:41.640Z,10.60
2023-04-18T23:40:43.002Z,10.69
2023-04-18T23:43:09.640Z,10.52
2023-04-18T23:45:36.838Z,10.63
2023-04-18T23:48:03.603Z,10.66
2023-04-18T23:50:30.348Z,10.65
2023-04-18T23:52:56.941Z,10.64
2023-04-18T23:55:23.588Z,10.60
2023-04-18T23:57:50.217Z,10.64
